Time;durP1;ratioP1;P1;durP2;ratioP2;P2;SDS_P1;SDS_P2;PMS_P1;PMS_P2;Temp;Humidity;BMP_temperature;BMP_pressure;BME280_temperature;BME280_humidity;BME280_pressure;Samples;Min_cycle;Max_cycle;Signal;HPM_P1;HPM_P2
2023/12/27 00:00:40;;;;;;;5.70;3.60;;;;;;;;;;5024096;28;20705;-59
2023/12/27 00:03:06;;;;;;;3.37;2.80;;;;;;;;;;5034421;28;20224;-59
2023/12/27 00:05:32;;;;;;;5.60;4.17;;;;;;;;;;5030977;28;20169;-59
2023/12/27 00:07:58;;;;;;;5.60;3.07;;;;;;;;;;5025222;28;20181;-60
2023/12/27 00:10:24;;;;;;;5.33;3.20;;;;;;;;;;5031681;28;20603;-59
2023/12/27 00:12:50;;;;;;;6.20;3.13;;;;;;;;;;5031953;28;20216;-58
2023/12/27 00:15:16;;;;;;;5.20;3.20;;;;;;;;;;5030502;28;20736;-59
2023/12/27 00:17:42;;;;;;;5.57;3.40;;;;;;;;;;5029725;28;20218;-60
2023/12/27 00:20:09;;;;;;;6.90;3.03;;;;;;;;;;5030290;28;20814;-60
2023/12/27 00:22:35;;;;;;;6.03;3.40;;;;;;;;;;5033515;28;20277;-55
2023/12/27 00:25:01;;;;;;;5.63;3.50;;;;;;;;;;5039083;28;20258;-55
2023/12/27 00:27:27;;;;;;;7.73;3.47;;;;;;;;;;5033432;28;20166;-55
2023/12/27 00:29:53;;;;;;;4.17;3.00;;;;;;;;;;5030789;28;20165;-54
2023/12/27 00:32:19;;;;;;;4.70;3.00;;;;;;;;;;5030682;28;20222;-54
2023/12/27 00:34:48;;;;;;;5.63;3.37;;;;;;;;;;5029776;28;20264;-55
2023/12/27 00:37:15;;;;;;;4.70;3.40;;;;;;;;;;5027475;28;20182;-54
2023/12/27 00:39:41;;;;;;;7.13;3.10;;;;;;;;;;5030741;28;20649;-54
2023/12/27 00:42:07;;;;;;;4.30;3.03;;;;;;;;;;5028974;28;20186;-55
2023/12/27 00:44:33;;;;;;;6.83;3.13;;;;;;;;;;5031094;28;20181;-55
2023/12/27 00:46:59;;;;;;;3.87;3.10;;;;;;;;;;5030041;28;20177;-53
2023/12/27 00:49:25;;;;;;;3.80;2.77;;;;;;;;;;5029047;28;20200;-54
2023/12/27 00:51:51;;;;;;;3.53;2.57;;;;;;;;;;5030016;28;20182;-54
2023/12/27 00:54:18;;;;;;;6.23;2.53;;;;;;;;;;5029672;28;20336;-55
2023/12/27 00:56:44;;;;;;;5.20;2.80;;;;;;;;;;5023744;28;20194;-54
2023/12/27 00:59:10;;;;;;;4.20;2.93;;;;;;;;;;5029681;28;20684;-56
2023/12/27 01:01:36;;;;;;;5.53;3.10;;;;;;;;;;5028839;28;20227;-55
2023/12/27 01:04:03;;;;;;;6.80;4.03;;;;;;;;;;5028460;28;20186;-54
2023/12/27 01:06:29;;;;;;;4.57;3.13;;;;;;;;;;5027211;28;20683;-54
2023/12/27 01:08:55;;;;;;;4.60;2.97;;;;;;;;;;5026418;28;20195;-54
2023/12/27 01:11:21;;;;;;;5.43;2.73;;;;;;;;;;5030655;28;20634;-56
2023/12/27 01:13:47;;;;;;;4.80;2.60;;;;;;;;;;5030445;28;20206;-55
2023/12/27 01:16:14;;;;;;;4.40;3.30;;;;;;;;;;5029750;28;20233;-55
2023/12/27 01:18:40;;;;;;;4.43;2.87;;;;;;;;;;5029413;28;20206;-55
2023/12/27 01:21:06;;;;;;;6.50;2.90;;;;;;;;;;5029270;28;20169;-55
2023/12/27 01:23:32;;;;;;;7.03;2.80;;;;;;;;;;5029956;28;20185;-54
2023/12/27 01:25:58;;;;;;;4.27;2.60;;;;;;;;;;5023925;28;20190;-53
2023/12/27 01:28:24;;;;;;;6.60;2.93;;;;;;;;;;5029822;28;20181;-52
2023/12/27 01:30:51;;;;;;;3.83;2.77;;;;;;;;;;5029661;28;20619;-53
2023/12/27 01:33:17;;;;;;;3.73;3.00;;;;;;;;;;5032415;28;20256;-57
2023/12/27 01:35:44;;;;;;;5.63;3.17;;;;;;;;;;5034462;28;20600;-57
2023/12/27 01:38:11;;;;;;;6.40;3.20;;;;;;;;;;5031599;28;20221;-56
2023/12/27 01:40:37;;;;;;;9.87;3.60;;;;;;;;;;5031147;28;20253;-56
2023/12/27 01:43:03;;;;;;;6.17;2.90;;;;;;;;;;5029698;28;20178;-57
2023/12/27 01:45:29;;;;;;;5.97;3.03;;;;;;;;;;5030910;28;20184;-58
2023/12/27 01:47:55;;;;;;;6.20;2.77;;;;;;;;;;5029751;28;20465;-57
2023/12/27 01:50:21;;;;;;;7.60;3.63;;;;;;;;;;5033465;28;20499;-57
2023/12/27 01:52:47;;;;;;;7.07;2.80;;;;;;;;;;5029644;28;20681;-57
2023/12/27 01:55:13;;;;;;;4.17;2.70;;;;;;;;;;5029706;28;20297;-57
2023/12/27 01:57:40;;;;;;;6.37;2.93;;;;;;;;;;5025895;28;20217;-56
2023/12/27 02:00:07;;;;;;;5.63;3.10;;;;;;;;;;5029922;28;20549;-56
2023/12/27 02:02:33;;;;;;;5.53;2.80;;;;;;;;;;5029228;28;20563;-57
2023/12/27 02:04:59;;;;;;;4.20;2.70;;;;;;;;;;5027616;28;20610;-57
2023/12/27 02:07:25;;;;;;;5.03;3.03;;;;;;;;;;5028917;28;20178;-58
2023/12/27 02:09:51;;;;;;;4.27;2.60;;;;;;;;;;5028859;28;20170;-57
2023/12/27 02:12:25;;;;;;;4.63;2.90;;;;;;;;;;5029858;28;20532;-57
2023/12/27 02:14:51;;;;;;;6.07;3.03;;;;;;;;;;5028856;28;20189;-57
2023/12/27 02:17:17;;;;;;;5.40;3.30;;;;;;;;;;5030248;28;20213;-56
2023/12/27 02:19:44;;;;;;;4.37;2.73;;;;;;;;;;5032650;28;20243;-57
2023/12/27 02:22:12;;;;;;;5.07;3.13;;;;;;;;;;5031003;28;20177;-57
2023/12/27 02:24:38;;;;;;;7.30;3.30;;;;;;;;;;5028334;28;20170;-56
2023/12/27 02:27:04;;;;;;;5.10;2.90;;;;;;;;;;5030220;28;20569;-57
2023/12/27 02:29:30;;;;;;;6.50;3.87;;;;;;;;;;5027603;28;20625;-57
2023/12/27 02:31:56;;;;;;;4.80;3.30;;;;;;;;;;5026927;28;20216;-56
2023/12/27 02:34:22;;;;;;;4.20;3.03;;;;;;;;;;5028097;28;20178;-56
2023/12/27 02:36:49;;;;;;;5.17;3.13;;;;;;;;;;5027904;28;20289;-57
2023/12/27 02:39:15;;;;;;;5.97;3.20;;;;;;;;;;5035263;28;20296;-57
2023/12/27 02:41:40;;;;;;;6.83;3.50;;;;;;;;;;5031492;28;20197;-57
2023/12/27 02:44:06;;;;;;;7.00;4.00;;;;;;;;;;5028897;28;20580;-53
2023/12/27 02:46:33;;;;;;;7.40;4.07;;;;;;;;;;5029338;28;20189;-54
2023/12/27 02:48:59;;;;;;;6.57;3.37;;;;;;;;;;5024970;28;20188;-53
2023/12/27 02:51:25;;;;;;;8.00;3.87;;;;;;;;;;5026536;28;20193;-52
2023/12/27 02:53:51;;;;;;;4.47;3.30;;;;;;;;;;5029420;28;20172;-53
2023/12/27 02:56:18;;;;;;;9.43;3.77;;;;;;;;;;5029865;28;20185;-53
2023/12/27 02:58:44;;;;;;;5.70;3.07;;;;;;;;;;5028092;28;20193;-53
2023/12/27 03:01:10;;;;;;;6.50;3.40;;;;;;;;;;5028500;28;20200;-53
2023/12/27 03:03:36;;;;;;;8.43;2.93;;;;;;;;;;5028324;28;20170;-53
2023/12/27 03:06:02;;;;;;;7.77;3.33;;;;;;;;;;5029006;28;20535;-53
2023/12/27 03:08:28;;;;;;;6.73;3.83;;;;;;;;;;5027151;28;20185;-54
2023/12/27 03:10:55;;;;;;;9.17;4.00;;;;;;;;;;5027238;28;20217;-54
2023/12/27 03:13:22;;;;;;;8.77;3.50;;;;;;;;;;5031613;28;20212;-54
2023/12/27 03:15:48;;;;;;;4.07;2.90;;;;;;;;;;5032068;28;20240;-55
2023/12/27 03:18:14;;;;;;;7.27;3.57;;;;;;;;;;5030392;28;20214;-53
2023/12/27 03:20:40;;;;;;;6.70;3.47;;;;;;;;;;5030846;28;20681;-53
2023/12/27 03:23:06;;;;;;;5.37;2.80;;;;;;;;;;5032027;28;20252;-55
2023/12/27 03:25:32;;;;;;;5.30;3.00;;;;;;;;;;5031899;28;20264;-52
2023/12/27 03:27:58;;;;;;;8.17;3.60;;;;;;;;;;5031693;28;20181;-54
2023/12/27 03:30:24;;;;;;;6.60;3.13;;;;;;;;;;5026748;28;20182;-53
2023/12/27 03:32:50;;;;;;;7.33;3.87;;;;;;;;;;5031190;28;20684;-52
2023/12/27 03:35:16;;;;;;;6.90;3.30;;;;;;;;;;5037048;28;20219;-54
2023/12/27 03:37:44;;;;;;;4.23;3.10;;;;;;;;;;5031251;28;20229;-54
2023/12/27 03:40:11;;;;;;;7.97;3.40;;;;;;;;;;5031786;28;20170;-54
2023/12/27 03:42:37;;;;;;;3.57;3.07;;;;;;;;;;5031207;28;20170;-54
2023/12/27 03:45:03;;;;;;;3.87;3.27;;;;;;;;;;5031709;28;20181;-56
2023/12/27 03:47:29;;;;;;;4.13;2.93;;;;;;;;;;5033503;28;20182;-54
2023/12/27 03:49:55;;;;;;;7.50;3.27;;;;;;;;;;5035594;28;20666;-53
2023/12/27 03:52:21;;;;;;;7.53;3.40;;;;;;;;;;5031292;28;20182;-53
2023/12/27 03:54:47;;;;;;;5.53;3.50;;;;;;;;;;5033484;28;20228;-54
2023/12/27 03:57:13;;;;;;;5.73;3.30;;;;;;;;;;5031842;28;20529;-55
2023/12/27 03:59:39;;;;;;;7.47;3.50;;;;;;;;;;5030944;28;20210;-56
2023/12/27 04:02:05;;;;;;;5.83;2.87;;;;;;;;;;5030896;28;20652;-54
2023/12/27 04:04:31;;;;;;;5.50;3.43;;;;;;;;;;5032787;28;20236;-54
2023/12/27 04:06:57;;;;;;;6.63;3.40;;;;;;;;;;5030714;28;20209;-54
2023/12/27 04:09:23;;;;;;;8.00;3.47;;;;;;;;;;5031236;28;20560;-54
2023/12/27 04:11:49;;;;;;;5.17;3.60;;;;;;;;;;5030838;28;20193;-55
2023/12/27 04:14:16;;;;;;;8.57;3.80;;;;;;;;;;5030673;28;20201;-55
2023/12/27 04:16:43;;;;;;;6.17;5.57;;;;;;;;;;5029926;28;20247;-55
2023/12/27 04:19:09;;;;;;;4.93;3.53;;;;;;;;;;5030788;28;20248;-55
2023/12/27 04:21:35;;;;;;;5.07;2.77;;;;;;;;;;5029947;28;20174;-54
2023/12/27 04:24:01;;;;;;;7.23;3.60;;;;;;;;;;5027388;28;20217;-54
2023/12/27 04:26:27;;;;;;;4.80;3.07;;;;;;;;;;5031435;28;20186;-54
2023/12/27 04:28:53;;;;;;;4.70;3.47;;;;;;;;;;5030419;28;20645;-54
2023/12/27 04:31:19;;;;;;;6.43;3.10;;;;;;;;;;5031520;28;20189;-55
2023/12/27 04:33:45;;;;;;;4.23;3.30;;;;;;;;;;5021631;28;20585;-54
2023/12/27 04:36:11;;;;;;;4.60;2.73;;;;;;;;;;5028491;28;20181;-55
2023/12/27 04:38:37;;;;;;;5.70;3.50;;;;;;;;;;5029782;28;20457;-54
2023/12/27 04:41:07;;;;;;;5.77;3.30;;;;;;;;;;5027147;28;20174;-54
2023/12/27 04:43:33;;;;;;;7.77;3.00;;;;;;;;;;5031989;28;20178;-54
2023/12/27 04:45:59;;;;;;;4.50;2.70;;;;;;;;;;5030341;28;20166;-55
2023/12/27 04:48:25;;;;;;;5.30;3.30;;;;;;;;;;5030245;28;20189;-54
2023/12/27 04:50:51;;;;;;;4.57;2.90;;;;;;;;;;5029699;28;20710;-54
2023/12/27 04:53:17;;;;;;;5.40;3.50;;;;;;;;;;5030332;28;20178;-55
2023/12/27 04:55:43;;;;;;;4.10;3.13;;;;;;;;;;5031276;28;20192;-54
2023/12/27 04:58:09;;;;;;;4.50;3.00;;;;;;;;;;5030359;28;20201;-54
2023/12/27 05:00:35;;;;;;;4.97;4.30;;;;;;;;;;5028215;28;20212;-55
2023/12/27 05:03:01;;;;;;;6.23;3.60;;;;;;;;;;5020968;28;20678;-55
2023/12/27 05:05:27;;;;;;;7.57;3.97;;;;;;;;;;5029020;28;20173;-53
2023/12/27 05:07:53;;;;;;;5.17;3.87;;;;;;;;;;5030427;28;20166;-53
2023/12/27 05:10:19;;;;;;;6.10;3.73;;;;;;;;;;5030185;28;20190;-53
2023/12/27 05:12:45;;;;;;;9.37;3.40;;;;;;;;;;5028448;28;20581;-53
2023/12/27 05:15:11;;;;;;;6.27;2.87;;;;;;;;;;5029553;28;20193;-54
2023/12/27 05:17:37;;;;;;;4.87;3.40;;;;;;;;;;5030528;28;20202;-53
2023/12/27 05:20:03;;;;;;;6.10;3.20;;;;;;;;;;5029704;28;20538;-52
2023/12/27 05:22:33;;;;;;;6.53;3.40;;;;;;;;;;5024084;28;20283;-53
2023/12/27 05:24:59;;;;;;;5.07;3.40;;;;;;;;;;5027474;28;20654;-54
2023/12/27 05:27:25;;;;;;;6.00;3.30;;;;;;;;;;5031018;28;20188;-54
2023/12/27 05:29:51;;;;;;;6.83;3.83;;;;;;;;;;5028190;28;20181;-53
2023/12/27 05:32:17;;;;;;;6.37;3.47;;;;;;;;;;5030266;28;20637;-53
2023/12/27 05:34:44;;;;;;;4.23;3.10;;;;;;;;;;5028828;28;20170;-55
2023/12/27 05:37:10;;;;;;;8.17;3.70;;;;;;;;;;5029099;28;20646;-54
2023/12/27 05:39:36;;;;;;;6.23;3.33;;;;;;;;;;5026824;28;20229;-52
2023/12/27 05:42:02;;;;;;;5.23;3.23;;;;;;;;;;5029050;28;20182;-53
2023/12/27 05:44:28;;;;;;;6.80;3.27;;;;;;;;;;5029875;28;20676;-54
2023/12/27 05:46:54;;;;;;;6.57;3.03;;;;;;;;;;5029008;28;20216;-53
2023/12/27 05:49:20;;;;;;;7.27;3.33;;;;;;;;;;5030267;28;20599;-56
2023/12/27 05:51:46;;;;;;;4.33;2.63;;;;;;;;;;5028105;28;20272;-53
2023/12/27 05:54:13;;;;;;;4.43;3.00;;;;;;;;;;5025226;28;20269;-52
2023/12/27 05:56:40;;;;;;;8.27;3.83;;;;;;;;;;5030228;28;20321;-53
2023/12/27 05:59:06;;;;;;;5.13;2.90;;;;;;;;;;5030078;28;20728;-52
2023/12/27 06:01:32;;;;;;;5.17;2.83;;;;;;;;;;5027949;28;20170;-53
2023/12/27 06:04:03;;;;;;;5.87;2.60;;;;;;;;;;5029425;28;20212;-52
2023/12/27 06:06:29;;;;;;;3.63;2.27;;;;;;;;;;5029434;28;20253;-53
2023/12/27 06:08:55;;;;;;;5.07;2.47;;;;;;;;;;5024991;28;20300;-54
2023/12/27 06:11:21;;;;;;;6.33;2.97;;;;;;;;;;5027035;28;20186;-54
2023/12/27 06:13:47;;;;;;;3.67;3.03;;;;;;;;;;5026754;28;20194;-54
2023/12/27 06:16:13;;;;;;;5.63;2.47;;;;;;;;;;5029183;28;20287;-57
2023/12/27 06:18:39;;;;;;;5.37;2.43;;;;;;;;;;5029221;28;20190;-57
2023/12/27 06:21:05;;;;;;;4.37;2.67;;;;;;;;;;5025447;28;20177;-57
2023/12/27 06:23:31;;;;;;;6.00;2.63;;;;;;;;;;5028780;28;20184;-57
2023/12/27 06:25:57;;;;;;;8.53;2.90;;;;;;;;;;5027785;28;20605;-58
2023/12/27 06:28:23;;;;;;;7.90;2.50;;;;;;;;;;5029820;28;20188;-58
2023/12/27 06:30:49;;;;;;;8.17;3.50;;;;;;;;;;5031466;28;20185;-58
2023/12/27 06:33:15;;;;;;;4.00;2.40;;;;;;;;;;5028299;28;20170;-58
2023/12/27 06:35:41;;;;;;;5.50;2.63;;;;;;;;;;5029801;28;20182;-57
2023/12/27 06:38:07;;;;;;;7.67;2.60;;;;;;;;;;5028656;28;20637;-58
2023/12/27 06:40:33;;;;;;;5.67;2.63;;;;;;;;;;5027487;28;20507;-58
2023/12/27 06:42:59;;;;;;;8.20;3.33;;;;;;;;;;5026874;28;20261;-58
2023/12/27 06:45:25;;;;;;;6.47;3.10;;;;;;;;;;5025475;28;20174;-58
2023/12/27 06:47:51;;;;;;;5.80;2.70;;;;;;;;;;5030790;28;20194;-58
2023/12/27 06:50:17;;;;;;;9.07;2.93;;;;;;;;;;5031625;28;20207;-58
2023/12/27 06:52:43;;;;;;;5.63;3.20;;;;;;;;;;5032977;28;20166;-58
2023/12/27 06:55:10;;;;;;;4.20;2.43;;;;;;;;;;5033807;28;20584;-59
2023/12/27 06:57:36;;;;;;;4.83;2.97;;;;;;;;;;5033303;28;20185;-58
2023/12/27 07:00:03;;;;;;;4.30;2.63;;;;;;;;;;5036136;28;20180;-57
2023/12/27 07:02:29;;;;;;;8.23;3.00;;;;;;;;;;5032485;28;20170;-58
2023/12/27 07:04:55;;;;;;;2.77;2.40;;;;;;;;;;5032587;28;20182;-58
2023/12/27 07:07:21;;;;;;;9.00;3.17;;;;;;;;;;5029241;28;20177;-58
2023/12/27 07:09:47;;;;;;;3.97;2.70;;;;;;;;;;5028286;28;20535;-58
2023/12/27 07:12:13;;;;;;;4.37;2.37;;;;;;;;;;5031838;28;20244;-58
2023/12/27 07:14:39;;;;;;;2.63;2.43;;;;;;;;;;5031220;28;20264;-58
2023/12/27 07:17:06;;;;;;;3.67;2.73;;;;;;;;;;5032106;28;20280;-57
2023/12/27 07:19:32;;;;;;;3.30;2.57;;;;;;;;;;5031568;28;20194;-58
2023/12/27 07:21:58;;;;;;;5.03;2.87;;;;;;;;;;5031418;28;20200;-57
2023/12/27 07:24:24;;;;;;;3.83;2.60;;;;;;;;;;5032079;28;20167;-58
2023/12/27 07:26:50;;;;;;;5.83;2.83;;;;;;;;;;5031635;28;20182;-55
2023/12/27 07:29:16;;;;;;;4.27;3.00;;;;;;;;;;5031637;28;20737;-54
2023/12/27 07:31:42;;;;;;;4.07;2.37;;;;;;;;;;5031324;28;20182;-54
2023/12/27 07:34:10;;;;;;;2.77;2.23;;;;;;;;;;5027863;28;20966;-53
2023/12/27 07:36:36;;;;;;;4.47;2.90;;;;;;;;;;5029143;28;20549;-55
2023/12/27 07:39:05;;;;;;;4.87;2.60;;;;;;;;;;5029551;28;20205;-57
2023/12/27 07:41:32;;;;;;;5.13;2.80;;;;;;;;;;5032567;28;20634;-57
2023/12/27 07:43:58;;;;;;;7.23;3.43;;;;;;;;;;5031267;28;20630;-57
2023/12/27 07:46:24;;;;;;;6.70;3.00;;;;;;;;;;5032757;28;20177;-57
2023/12/27 07:48:51;;;;;;;4.47;3.07;;;;;;;;;;5030018;28;20273;-56
2023/12/27 07:51:17;;;;;;;3.83;2.93;;;;;;;;;;5030621;28;20905;-56
2023/12/27 07:53:43;;;;;;;4.60;3.40;;;;;;;;;;5031308;28;20189;-56
2023/12/27 07:56:12;;;;;;;3.90;3.13;;;;;;;;;;5026824;28;21540;-55
2023/12/27 07:58:38;;;;;;;4.50;3.60;;;;;;;;;;5030185;28;20726;-56
2023/12/27 08:01:04;;;;;;;7.83;3.43;;;;;;;;;;5030182;28;20174;-56
2023/12/27 08:03:30;;;;;;;4.43;3.37;;;;;;;;;;5028424;28;20778;-55
2023/12/27 08:05:56;;;;;;;4.43;2.73;;;;;;;;;;5030188;28;20197;-56
2023/12/27 08:08:22;;;;;;;6.77;3.27;;;;;;;;;;5031921;28;20248;-56
2023/12/27 08:10:48;;;;;;;7.10;3.40;;;;;;;;;;5031909;28;20236;-56
2023/12/27 08:13:14;;;;;;;7.03;4.43;;;;;;;;;;5030064;28;20202;-56
2023/12/27 08:15:40;;;;;;;8.33;3.63;;;;;;;;;;5029664;28;20286;-55
2023/12/27 08:18:06;;;;;;;7.57;3.20;;;;;;;;;;5029529;28;20699;-55
2023/12/27 08:20:32;;;;;;;3.10;2.57;;;;;;;;;;5028080;28;20542;-55
2023/12/27 08:22:58;;;;;;;4.23;3.20;;;;;;;;;;5028243;28;20461;-56
2023/12/27 08:25:24;;;;;;;6.83;3.87;;;;;;;;;;5027646;28;20207;-55
2023/12/27 08:27:50;;;;;;;3.97;3.10;;;;;;;;;;5029634;28;20523;-55
2023/12/27 08:30:16;;;;;;;6.70;3.00;;;;;;;;;;5030944;28;20268;-55
2023/12/27 08:32:42;;;;;;;4.60;3.30;;;;;;;;;;5030857;28;20186;-55
2023/12/27 08:35:08;;;;;;;16.23;4.93;;;;;;;;;;5030565;28;20272;-55
2023/12/27 08:37:34;;;;;;;4.70;3.33;;;;;;;;;;5031362;28;20267;-55
2023/12/27 08:40:00;;;;;;;4.87;3.30;;;;;;;;;;5030243;28;20202;-56
2023/12/27 08:42:27;;;;;;;4.70;3.13;;;;;;;;;;5025737;28;20182;-55
2023/12/27 08:44:53;;;;;;;6.93;3.03;;;;;;;;;;5029419;28;20189;-56
2023/12/27 08:47:19;;;;;;;4.73;3.23;;;;;;;;;;5028330;28;20192;-54
2023/12/27 08:49:45;;;;;;;5.13;3.13;;;;;;;;;;5028575;28;20189;-55
2023/12/27 08:52:11;;;;;;;3.87;2.77;;;;;;;;;;5030825;28;20192;-55
2023/12/27 08:54:37;;;;;;;5.30;3.47;;;;;;;;;;5030256;28;20182;-55
2023/12/27 08:57:03;;;;;;;4.90;3.20;;;;;;;;;;5030278;28;20181;-53
2023/12/27 08:59:29;;;;;;;6.07;3.37;;;;;;;;;;5029214;28;20300;-53
2023/12/27 09:01:55;;;;;;;4.67;3.00;;;;;;;;;;5030216;28;20689;-53
2023/12/27 09:04:21;;;;;;;4.17;3.03;;;;;;;;;;5025257;28;20174;-53
2023/12/27 09:06:47;;;;;;;5.50;2.93;;;;;;;;;;5030303;28;20174;-53
2023/12/27 09:09:13;;;;;;;4.27;3.73;;;;;;;;;;5028785;28;20650;-53
2023/12/27 09:11:39;;;;;;;5.13;2.70;;;;;;;;;;5030264;28;20189;-54
2023/12/27 09:14:05;;;;;;;6.50;2.70;;;;;;;;;;5028111;28;20202;-55
2023/12/27 09:16:31;;;;;;;4.63;2.67;;;;;;;;;;5028474;28;20213;-53
2023/12/27 09:18:59;;;;;;;6.17;2.90;;;;;;;;;;5026847;28;20209;-53
2023/12/27 09:21:30;;;;;;;4.50;2.57;;;;;;;;;;5028261;28;20182;-54
2023/12/27 09:23:58;;;;;;;4.30;2.40;;;;;;;;;;5028259;28;20174;-56
2023/12/27 09:26:24;;;;;;;3.30;2.50;;;;;;;;;;5029937;28;20185;-56
2023/12/27 09:28:50;;;;;;;4.97;2.87;;;;;;;;;;5029414;28;20190;-56
2023/12/27 09:31:16;;;;;;;3.97;3.57;;;;;;;;;;5036946;28;20182;-57
2023/12/27 09:33:42;;;;;;;4.63;2.63;;;;;;;;;;5028747;28;20614;-56
2023/12/27 09:36:09;;;;;;;4.77;3.43;;;;;;;;;;5026755;28;20634;-56
2023/12/27 09:38:37;;;;;;;7.67;3.43;;;;;;;;;;5027489;28;20326;-53
2023/12/27 09:41:03;;;;;;;3.40;2.63;;;;;;;;;;5030183;28;20189;-53
2023/12/27 09:43:31;;;;;;;3.37;2.30;;;;;;;;;;5030405;28;20170;-53
2023/12/27 09:45:57;;;;;;;5.33;3.33;;;;;;;;;;5034653;28;20166;-53
2023/12/27 09:48:25;;;;;;;6.53;3.00;;;;;;;;;;5031742;28;20223;-53
2023/12/27 09:50:51;;;;;;;6.37;2.87;;;;;;;;;;5026328;28;20185;-52
2023/12/27 09:53:17;;;;;;;3.47;2.97;;;;;;;;;;5024232;28;20197;-54
2023/12/27 09:55:44;;;;;;;3.00;2.70;;;;;;;;;;5023382;28;20586;-53
2023/12/27 09:58:10;;;;;;;4.80;2.93;;;;;;;;;;5025750;28;20642;-53
2023/12/27 10:00:37;;;;;;;5.27;3.03;;;;;;;;;;5029760;28;20180;-54
2023/12/27 10:03:04;;;;;;;4.67;2.63;;;;;;;;;;5027917;28;20169;-56
2023/12/27 10:05:54;;;;;;;5.00;2.80;;;;;;;;;;5035759;28;20200;-56
2023/12/27 10:08:20;;;;;;;8.67;3.07;;;;;;;;;;5026332;28;20193;-55
2023/12/27 10:10:46;;;;;;;4.90;2.80;;;;;;;;;;5029007;28;20181;-56
2023/12/27 10:13:13;;;;;;;3.70;3.10;;;;;;;;;;5027712;28;20208;-56
2023/12/27 10:15:39;;;;;;;5.00;3.27;;;;;;;;;;5023317;28;20222;-56
2023/12/27 10:18:05;;;;;;;4.53;2.77;;;;;;;;;;5017614;28;20202;-54
2023/12/27 10:20:32;;;;;;;5.63;2.47;;;;;;;;;;5016539;28;20182;-53
2023/12/27 10:22:59;;;;;;;4.80;3.10;;;;;;;;;;5028601;28;20174;-53
2023/12/27 10:25:28;;;;;;;6.10;2.70;;;;;;;;;;5029480;28;20166;-54
2023/12/27 10:27:54;;;;;;;3.93;3.10;;;;;;;;;;5028216;28;20200;-54
2023/12/27 10:30:21;;;;;;;3.77;2.77;;;;;;;;;;5036861;28;20645;-56
2023/12/27 10:32:58;;;;;;;4.83;3.00;;;;;;;;;;5031202;28;20699;-57
2023/12/27 10:35:25;;;;;;;3.07;2.67;;;;;;;;;;5033507;28;20189;-57
2023/12/27 10:38:01;;;;;;;4.17;2.67;;;;;;;;;;5029753;28;20169;-57
2023/12/27 10:40:29;;;;;;;3.67;2.60;;;;;;;;;;5029543;28;20181;-57
2023/12/27 10:42:55;;;;;;;4.30;2.70;;;;;;;;;;5029722;28;20188;-56
2023/12/27 10:45:21;;;;;;;4.90;2.60;;;;;;;;;;5026237;28;20187;-56
2023/12/27 10:47:49;;;;;;;3.10;2.80;;;;;;;;;;5013428;28;20236;-56
2023/12/27 10:50:20;;;;;;;5.20;2.67;;;;;;;;;;5029589;28;20194;-57
2023/12/27 10:52:51;;;;;;;4.33;2.97;;;;;;;;;;5029290;28;20687;-57
2023/12/27 10:55:22;;;;;;;3.00;2.70;;;;;;;;;;5029417;28;20193;-57
2023/12/27 10:57:54;;;;;;;2.63;2.43;;;;;;;;;;5027770;28;20174;-56
2023/12/27 11:00:20;;;;;;;7.33;3.73;;;;;;;;;;5027950;28;20190;-57
2023/12/27 11:02:47;;;;;;;5.83;2.73;;;;;;;;;;5028634;28;20688;-56
2023/12/27 11:05:15;;;;;;;3.73;2.73;;;;;;;;;;5029233;28;20178;-56
2023/12/27 11:07:43;;;;;;;2.90;2.50;;;;;;;;;;5037332;28;20256;-56
2023/12/27 11:10:10;;;;;;;4.33;2.97;;;;;;;;;;5023314;28;20190;-56
2023/12/27 11:12:38;;;;;;;4.23;2.57;;;;;;;;;;5029560;28;20182;-57
2023/12/27 11:15:04;;;;;;;3.00;2.53;;;;;;;;;;5028719;28;20192;-57
2023/12/27 11:17:32;;;;;;;2.40;2.20;;;;;;;;;;5027751;28;20205;-56
2023/12/27 11:19:58;;;;;;;3.53;2.30;;;;;;;;;;5024692;28;20198;-56
2023/12/27 11:22:24;;;;;;;6.00;2.53;;;;;;;;;;5034654;28;20542;-58
2023/12/27 11:24:50;;;;;;;3.03;2.30;;;;;;;;;;5028571;28;20561;-57
2023/12/27 11:27:19;;;;;;;3.73;2.60;;;;;;;;;;5026163;28;20714;-54
2023/12/27 11:29:46;;;;;;;3.00;2.70;;;;;;;;;;5028397;28;20190;-54
2023/12/27 11:32:12;;;;;;;4.20;2.50;;;;;;;;;;5030861;28;20193;-55
2023/12/27 11:34:38;;;;;;;4.70;2.50;;;;;;;;;;5032706;28;20177;-54
2023/12/27 11:37:06;;;;;;;3.27;2.60;;;;;;;;;;5033084;28;20636;-54
2023/12/27 11:39:32;;;;;;;4.93;2.97;;;;;;;;;;5031320;28;20313;-54
2023/12/27 11:42:00;;;;;;;2.07;1.97;;;;;;;;;;5033274;28;20300;-54
2023/12/27 11:44:38;;;;;;;6.00;2.80;;;;;;;;;;5031136;28;20220;-55
2023/12/27 11:47:05;;;;;;;5.17;2.67;;;;;;;;;;5032460;28;20253;-55
2023/12/27 11:49:32;;;;;;;3.53;2.30;;;;;;;;;;5025065;28;20182;-55
2023/12/27 11:51:59;;;;;;;2.40;2.20;;;;;;;;;;5026050;28;20204;-55
2023/12/27 11:54:26;;;;;;;4.17;2.47;;;;;;;;;;5026440;28;20642;-55
2023/12/27 11:56:55;;;;;;;3.83;2.43;;;;;;;;;;5030073;28;20702;-56
2023/12/27 11:59:22;;;;;;;4.43;2.33;;;;;;;;;;5032783;28;20197;-55
2023/12/27 12:01:48;;;;;;;3.10;2.03;;;;;;;;;;5031523;28;20178;-55
2023/12/27 12:04:35;;;;;;;2.93;2.60;;;;;;;;;;5032053;28;20649;-55
2023/12/27 12:07:20;;;;;;;4.67;2.47;;;;;;;;;;5030207;28;20177;-55
2023/12/27 12:09:46;;;;;;;4.40;2.50;;;;;;;;;;5028224;28;20652;-55
2023/12/27 12:12:20;;;;;;;3.03;2.03;;;;;;;;;;5031277;28;20732;-55
2023/12/27 12:14:46;;;;;;;2.40;2.20;;;;;;;;;;5027095;28;20189;-55
2023/12/27 12:17:15;;;;;;;2.77;2.20;;;;;;;;;;5031255;28;20222;-55
2023/12/27 12:19:41;;;;;;;4.80;3.00;;;;;;;;;;5031912;28;20228;-55
2023/12/27 12:22:07;;;;;;;2.90;2.60;;;;;;;;;;5031383;28;20166;-56
2023/12/27 12:24:34;;;;;;;3.93;2.43;;;;;;;;;;5029602;28;20687;-55
2023/12/27 12:27:00;;;;;;;3.23;2.30;;;;;;;;;;5030742;28;20174;-55
2023/12/27 12:29:27;;;;;;;3.00;2.50;;;;;;;;;;5029942;28;20188;-55
2023/12/27 12:31:54;;;;;;;3.27;2.33;;;;;;;;;;5031559;28;20649;-55
2023/12/27 12:34:20;;;;;;;3.30;2.27;;;;;;;;;;5032997;28;20193;-55
2023/12/27 12:36:47;;;;;;;2.63;2.40;;;;;;;;;;5027280;28;20185;-57
2023/12/27 12:39:15;;;;;;;2.97;2.67;;;;;;;;;;5028753;28;20198;-58
2023/12/27 12:41:41;;;;;;;5.40;2.20;;;;;;;;;;5031239;28;20170;-58
2023/12/27 12:44:10;;;;;;;3.53;2.60;;;;;;;;;;5029493;28;20539;-57
2023/12/27 12:46:37;;;;;;;3.20;2.90;;;;;;;;;;5031408;28;20521;-57
2023/12/27 12:49:06;;;;;;;8.07;2.93;;;;;;;;;;5029429;28;20188;-59
2023/12/27 12:51:33;;;;;;;4.20;2.70;;;;;;;;;;5031084;28;20272;-59
2023/12/27 12:54:02;;;;;;;3.57;2.37;;;;;;;;;;5027754;28;20181;-58
2023/12/27 12:56:28;;;;;;;2.60;2.40;;;;;;;;;;5025179;28;20186;-59
2023/12/27 12:58:56;;;;;;;2.83;2.53;;;;;;;;;;5026887;28;20566;-58
2023/12/27 13:01:22;;;;;;;2.90;2.50;;;;;;;;;;5011338;28;20216;-58
2023/12/27 13:03:49;;;;;;;3.43;2.30;;;;;;;;;;5026671;28;20231;-59
2023/12/27 13:06:17;;;;;;;2.73;2.47;;;;;;;;;;5023585;28;20201;-59
2023/12/27 13:08:43;;;;;;;2.93;2.23;;;;;;;;;;5025750;28;20178;-58
2023/12/27 13:11:13;;;;;;;2.70;2.13;;;;;;;;;;5019803;28;20189;-59
2023/12/27 13:13:39;;;;;;;2.90;2.10;;;;;;;;;;5019528;28;20201;-58
2023/12/27 13:16:06;;;;;;;2.40;2.10;;;;;;;;;;5024755;28;20236;-58
2023/12/27 13:18:32;;;;;;;3.33;2.20;;;;;;;;;;5024596;28;20212;-61
2023/12/27 13:20:59;;;;;;;3.33;2.07;;;;;;;;;;5023371;28;20178;-58
2023/12/27 13:23:25;;;;;;;4.27;2.40;;;;;;;;;;5024557;28;20181;-58
2023/12/27 13:25:51;;;;;;;10.97;2.40;;;;;;;;;;5024289;28;20197;-58
2023/12/27 13:28:22;;;;;;;2.17;1.97;;;;;;;;;;5024395;28;20189;-59
2023/12/27 13:30:48;;;;;;;2.90;2.23;;;;;;;;;;5021105;28;20556;-58
2023/12/27 13:33:14;;;;;;;2.83;2.63;;;;;;;;;;5020929;28;20186;-58
2023/12/27 13:35:40;;;;;;;2.63;1.93;;;;;;;;;;5024188;28;20542;-58
2023/12/27 13:38:06;;;;;;;3.63;2.13;;;;;;;;;;5023388;28;20582;-59
2023/12/27 13:40:34;;;;;;;2.40;1.83;;;;;;;;;;5023813;28;20420;-59
2023/12/27 13:43:00;;;;;;;3.33;2.10;;;;;;;;;;5021322;28;20417;-57
2023/12/27 13:45:26;;;;;;;2.37;1.60;;;;;;;;;;5021777;28;20202;-58
2023/12/27 13:47:52;;;;;;;2.73;1.93;;;;;;;;;;5025642;28;20257;-55
2023/12/27 13:50:18;;;;;;;1.87;1.63;;;;;;;;;;5028270;28;20221;-54
2023/12/27 13:52:44;;;;;;;2.50;1.77;;;;;;;;;;5032841;28;20612;-55
2023/12/27 13:55:11;;;;;;;3.30;1.90;;;;;;;;;;5026681;28;20704;-55
2023/12/27 13:57:37;;;;;;;2.53;1.80;;;;;;;;;;5029119;28;20550;-56
2023/12/27 14:00:06;;;;;;;3.03;1.63;;;;;;;;;;5028684;28;20576;-55
2023/12/27 14:02:32;;;;;;;4.93;1.70;;;;;;;;;;5027749;28;20240;-56
2023/12/27 14:04:58;;;;;;;2.43;1.80;;;;;;;;;;5029357;28;20185;-55
2023/12/27 14:07:24;;;;;;;2.03;1.60;;;;;;;;;;5028608;28;20185;-55
2023/12/27 14:09:50;;;;;;;4.20;1.73;;;;;;;;;;5025334;28;20661;-57
2023/12/27 14:12:17;;;;;;;4.33;1.77;;;;;;;;;;5026713;28;20267;-55
2023/12/27 14:14:43;;;;;;;2.73;1.90;;;;;;;;;;5019101;28;20259;-57
2023/12/27 14:17:10;;;;;;;4.83;2.47;;;;;;;;;;5026112;28;20988;-56
2023/12/27 14:19:36;;;;;;;3.47;2.00;;;;;;;;;;5032671;28;20198;-55
2023/12/27 14:22:02;;;;;;;2.33;1.80;;;;;;;;;;5027730;28;20190;-54
2023/12/27 14:24:28;;;;;;;3.87;1.97;;;;;;;;;;5028531;28;20670;-55
2023/12/27 14:26:54;;;;;;;3.27;1.83;;;;;;;;;;5025714;28;20180;-57
2023/12/27 14:29:20;;;;;;;4.53;2.13;;;;;;;;;;5028230;28;20190;-56
2023/12/27 14:31:46;;;;;;;3.33;2.10;;;;;;;;;;5026850;28;20196;-54
2023/12/27 14:34:12;;;;;;;3.93;2.00;;;;;;;;;;5014760;28;20200;-56
2023/12/27 14:36:40;;;;;;;3.43;1.97;;;;;;;;;;5018854;28;20186;-56
2023/12/27 14:39:09;;;;;;;3.87;2.13;;;;;;;;;;5019626;28;20207;-55